Reuben Lasker — WTEG — position and weather

sailwx.info

Track history (hours):
 
Tides and Currents Weather Stations Pressure Air Temp Water Temp Dewpoint Dewpoint Depression Visibility Wind Speed Wind Dir Waves Ship Positions

Oceanographic research ship Reuben Lasker (United States)

Last reported at 2017-Nov-22 05:48 UTC. Time now 2017-Nov-22 07:24 UTC.
Position N 22°06' W 157°06'.

Length 64 m; draft 6.1 m.

Type: Other ship. MMSI: 369970573.

Wind from 360 at 8 knots

Barometer 1015.4 mb
Air temperature 21.4 ° C
Water temperature 25.9 ° C

Date/timePositionNaut miles runAvg speedWind from/ knotsBaromVisibWave heightAir tempDewpointWater temp
2017-Nov-22 05:48N 22°06' W 157°06'6 6.0 360 / 81015.4 21.4 25.9
2017-Nov-22 04:48N 22°00' W 157°06'6 6.0 050 / 61014.5 22.1 26.0
2017-Nov-22 03:48N 22°06' W 157°06'8 8.2 030 / 121013.6 23.5 26.0
2017-Nov-22 02:48N 22°00' W 157°12'8 8.2 040 / 101013.3 23.7 25.9
2017-Nov-22 01:48N 22°06' W 157°18'1312.6 040 / 101013.1 23.4 26.0
2017-Nov-22 00:48N 22°12' W 157°30'11 5.6 350 / 111013.2 23.4 26.0
2017-Nov-21 22:48N 22°12' W 157°42'1312.6 340 / 101014.3 22.3 26.0
2017-Nov-21 21:48N 22°18' W 157°54'1111.1 320 / 131015.0 22.2 26.2
2017-Nov-21 20:48N 22°18' W 158°06'1312.6 020 / 101015.3 24.2 26.1
2017-Nov-21 19:48N 22°24' W 158°18'6 5.5 050 / 111015.6 23.6 26.0
2017-Nov-21 18:48N 22°24' W 158°24'1111.1 350 / 81015.6 23.4 25.9
2017-Nov-21 17:48N 22°24' W 158°36'1312.6 310 / 91014.9 24.1 26.0
2017-Nov-21 16:48N 22°30' W 158°48'6 5.6 010 / 101014.3 23.9 25.8
2017-Nov-21 15:49N 22°30' W 158°42'6 5.5 020 / 121013.6 23.9 25.9
2017-Nov-21 14:49N 22°30' W 158°48'1616.3 330 / 121013.2 24.0 25.8
2017-Nov-21 13:49N 22°42' W 159°00'8 8.2 320 / 111013.4 23.5 25.8
2017-Nov-21 12:49N 22°48' W 159°06'1312.6 340 / 131013.7 23.8 25.8
2017-Nov-21 11:49N 22°54' W 159°18'8 8.2 340 / 131014.1 23.6 25.7
2017-Nov-21 10:49N 23°00' W 159°24'8 8.2 360 / 101014.8 23.8 25.8
2017-Nov-21 09:49N 23°06' W 159°30'1616.3 330 / 101015.3 23.6 25.8
2017-Nov-21 08:49N 23°18' W 159°42'8 8.1 340 / 121015.9 23.6 25.8
2017-Nov-21 07:49N 23°24' W 159°48'1312.5 350 / 91015.9 23.2 25.7
2017-Nov-21 06:49N 23°30' W 160°00'8 8.1 330 / 91015.7 23.8 25.9
2017-Nov-21 05:49N 23°36' W 160°06'0 0.0 020 / 141015.2 23.5 25.9
2017-Nov-21 04:49N 23°36' W 160°06'5 5.5 350 / 161014.3 23.2 25.9
2017-Nov-21 03:49N 23°36' W 160°12'5 5.5 010 / 171013.7 23.8 26.0
2017-Nov-21 02:49N 23°36' W 160°18'8 8.1 300 / 101013.3 23.5 25.9
2017-Nov-21 01:49N 23°42' W 160°24'1111.2 320 / 91012.9 23.7 26.0
2017-Nov-21 00:50N 23°42' W 160°36'18 8.8 350 / 121012.7 23.1 25.8
2017-Nov-20 22:51N 23°48' W 160°54'1111.0 010 / 161013.7 22.5 25.6
2017-Nov-20 21:51N 23°48' W 161°06'1312.5 010 / 151014.2 23.2 25.5
2017-Nov-20 20:51N 23°54' W 161°18'1111.0 310 / 101014.9 23.5 25.5
2017-Nov-20 19:51N 23°54' W 161°30'8 8.1 320 / 91015.2 23.2 25.6
2017-Nov-20 18:51N 24°00' W 161°36'1212.5 340 / 141014.9 22.8 25.8
2017-Nov-20 17:51N 24°06' W 161°48'5 5.5 330 / 121014.5 22.8 25.6
2017-Nov-20 16:51N 24°06' W 161°54'0 0.0 010 / 171013.8 22.5 25.7
2017-Nov-20 15:52N 24°06' W 161°54'5 5.5 020 / 181013.4 22.6 25.8
2017-Nov-20 14:52N 24°06' W 161°48'6 6.0 030 / 221013.4 29.9 25.6
2017-Nov-20 13:52N 24°12' W 161°48'1212.0 010 / 231013.9 22.3 25.7
2017-Nov-20 12:52N 24°24' W 161°48'6 6.0 020 / 181014.6 23.7 25.4
2017-Nov-20 11:52N 24°30' W 161°48'1313.2 030 / 191014.8 25.4 25.4
2017-Nov-20 10:52N 24°42' W 161°42'6 6.0 020 / 181015.1 23.7 25.4
2017-Nov-20 09:52N 24°48' W 161°42'6 6.0 030 / 191015.3 25.8 25.3
2017-Nov-20 08:52N 24°54' W 161°42'6 6.0 030 / 251015.7 26.9 25.4
2017-Nov-20 07:52N 25°00' W 161°42'0 0.0 010 / 111015.2 22.1 25.4
2017-Nov-20 06:52N 25°00' W 161°42'6 6.0 010 / 241014.8 22.5 25.4
2017-Nov-20 05:52N 24°54' W 161°42'0 0.0 010 / 231014.6 23.3 25.4
2017-Nov-20 04:52N 24°54' W 161°42'6 6.0 010 / 211014.2 23.1 25.4
2017-Nov-20 03:52N 24°48' W 161°42'8 8.1 010 / 181013.5 23.3 25.3
2017-Nov-20 02:52N 24°42' W 161°36'8 8.1 360 / 161013.2 22.7 25.3
2017-Nov-20 01:52N 24°36' W 161°30'1212.2 010 / 201013.2 22.9 25.4
2017-Nov-20 00:53N 24°24' W 161°30'16 8.1 360 / 201013.3 22.9 25.4
2017-Nov-19 22:53N 24°12' W 161°18'6 6.0 360 / 141014.5 23.1 25.6
2017-Nov-19 21:53N 24°06' W 161°18'1616.3 010 / 151015.2 23.5 25.6
2017-Nov-19 20:53N 23°54' W 161°06'8 8.1 360 / 171015.7 23.2 25.6
2017-Nov-19 19:53N 23°48' W 161°00'8 8.1 350 / 181015.8 23.1 25.6
2017-Nov-19 18:53N 23°42' W 160°54'5 5.5 360 / 161015.1 22.9 25.6
2017-Nov-19 17:53N 23°42' W 160°48'8 8.1 360 / 171015.2 24.9 25.8
2017-Nov-19 16:53N 23°48' W 160°54'6 6.0 360 / 161014.5 23.9 25.6
2017-Nov-19 15:53N 23°54' W 160°54'6 6.0 340 / 161013.8 22.7 25.6
2017-Nov-19 14:53N 23°48' W 160°54'5 5.5 010 / 181013.4 23.2 25.6
2017-Nov-19 13:53N 23°48' W 160°48'1312.5 350 / 201012.9 23.2 26.1
2017-Nov-19 12:53N 23°42' W 160°36'1111.0 350 / 211012.7 23.3 26.2
2017-Nov-19 11:53N 23°42' W 160°24'1312.5 340 / 161013.0 23.3 26.0
2017-Nov-19 10:53N 23°36' W 160°12'5 5.5 350 / 161013.3 23.2 26.0
2017-Nov-19 09:53N 23°36' W 160°06'1312.7 350 / 161013.2 23.4 26.2
2017-Nov-19 08:54N 23°30' W 159°54'1111.0 340 / 181013.2 23.5 26.1
2017-Nov-19 07:54N 23°30' W 159°42'1312.5 350 / 181013.0 23.5 26.0
2017-Nov-19 06:54N 23°24' W 159°30'6 5.5 350 / 171013.1 22.6 25.9
2017-Nov-19 05:54N 23°24' W 159°24'0 0.0 340 / 161012.7 23.2 26.0
2017-Nov-19 04:54N 23°24' W 159°24'0 0.0 340 / 181012.1 23.4 26.0
2017-Nov-19 03:54N 23°24' W 159°24'1111.0 310 / 171011.7 23.6 26.0
2017-Nov-19 02:54N 23°24' W 159°12'1312.5 340 / 151011.0 23.8 26.0
2017-Nov-19 01:54N 23°18' W 159°00'6 5.5 340 / 141010.6 23.9 26.0
2017-Nov-19 00:54N 23°18' W 158°54'2311.4 330 / 121010.5 24.2 25.8
2017-Nov-18 22:54N 23°12' W 158°30'1111.0 340 / 141011.6 24.2 26.2
2017-Nov-18 21:54N 23°12' W 158°18'6 6.0 010 / 121012.5 22.4 26.2
2017-Nov-18 20:54N 23°06' W 158°18'1111.0 350 / 151012.9 23.2 26.2
2017-Nov-18 19:54N 23°06' W 158°06'1111.0 010 / 71013.0 23.9 26.3
2017-Nov-18 18:54N 23°06' W 157°54'8 8.3 340 / 101012.5 23.4 26.3
2017-Nov-18 17:55N 23°00' W 157°48'1111.0 330 / 121011.7 24.0 26.2
2017-Nov-18 16:55N 23°00' W 157°36'0 0.0 310 / 61011.4 24.3 26.2
2017-Nov-18 15:55N 23°00' W 157°36'0 0.0 330 / 91011.4 24.2 26.2
2017-Nov-18 14:55N 23°00' W 157°36'6 6.0 290 / 61011.1 24.0 26.2
2017-Nov-18 13:55N 22°54' W 157°36'1313.2 320 / 101011.2 24.2 26.1
2017-Nov-18 12:55N 22°42' W 157°42'8 8.2 320 / 111011.4 24.0 26.2
2017-Nov-18 11:55N 22°36' W 157°48'8 8.2 290 / 81012.1 24.1 26.2
2017-Nov-18 10:55N 22°30' W 157°54'8 8.2 340 / 121012.4 23.6 26.2
2017-Nov-18 09:55N 22°24' W 158°00'8 8.2 350 / 61012.9 24.6 26.2
2017-Nov-18 08:55N 22°18' W 158°06'1313.2 360 / 61013.4 24.9 26.2
2017-Nov-18 07:55N 22°06' W 158°12'8 8.2 360 / 81013.4 25.0 26.2
2017-Nov-18 06:55N 22°00' W 158°18'8 8.2 010 / 91013.4 25.1 26.2
2017-Nov-18 05:55N 21°54' W 158°24'6 6.0 030 / 101013.1 25.1 26.3
2017-Nov-18 04:55N 21°48' W 158°24'6 6.0 030 / 121012.7 25.0 26.3
2017-Nov-18 03:55N 21°42' W 158°24'8 8.3 010 / 111012.1 25.3 26.5
2017-Nov-18 02:56N 21°36' W 158°30'8 8.2 020 / 121011.8 25.9 27.0
2017-Nov-18 01:56N 21°30' W 158°24'8 8.2 020 / 131011.4 25.5 27.1
2017-Nov-18 00:56N 21°24' W 158°18'19 9.4 010 / 141011.2 25.9 27.2
2017-Nov-17 22:56N 21°06' W 158°12'8 8.2 100 / 11012.7 25.8 27.4
2017-Nov-17 21:56N 21°00' W 158°06'6 5.7 080 / 61013.5 25.9 27.3
2017-Nov-17 20:57N 21°00' W 158°00'8 8.2 020 / 61014.0 25.8 27.2
2017-Nov-17 19:57N 21°06' W 158°06'8 8.2 050 / 71014.8 25.9 27.1
2017-Nov-17 18:57N 21°00' W 158°00'6 5.6 020 / 71014.6 24.9 27.1
2017-Nov-17 17:57N 21°00' W 157°54'1111.2 050 / 141014.6 25.5 27.1
2017-Nov-17 16:57N 21°00' W 157°42'0 0.0 040 / 161013.9 25.0 27.1
2017-Nov-17 15:57N 21°00' W 157°42'0 0.0 050 / 171013.4 24.9 27.2
2017-Nov-17 14:58N 21°00' W 157°42'8 8.1 060 / 131013.5 25.0 27.1
2017-Nov-17 13:57N 20°54' W 157°36'6 5.6 050 / 141013.6 24.8 27.2
2017-Nov-17 12:57N 20°54' W 157°30'6 5.6 050 / 141013.9 25.1 27.1
2017-Nov-17 11:57N 20°54' W 157°24'6 5.6 020 / 161014.1 24.8 27.1
2017-Nov-17 10:57N 20°54' W 157°30'8 8.2 030 / 181014.5 25.2 27.3
2017-Nov-17 09:57N 20°48' W 157°36'6 5.6 030 / 201015.2 25.2 27.3
2017-Nov-17 08:57N 20°48' W 157°42'6 5.6 040 / 221015.7 25.6 27.3
2017-Nov-17 07:57N 20°48' W 157°48'6 5.6 030 / 211015.8 26.0 27.3
2017-Nov-17 06:57N 20°48' W 157°54'6 5.6 020 / 181015.7 25.8 27.3
2017-Nov-17 05:57N 20°48' W 158°00'6 5.6 030 / 241015.5 25.9 27.4
2017-Nov-17 04:57N 20°48' W 157°54'0 0.0 030 / 241014.9 25.9 27.4
2017-Nov-17 03:57N 20°48' W 157°54'8 8.2 050 / 231015.2 27.1 27.3
2017-Nov-17 02:57N 20°54' W 157°48'1313.2 050 / 261014.7 26.2 27.2
2017-Nov-17 01:57N 21°06' W 157°42'6 5.6 020 / 251014.1 26.0 27.1
2017-Nov-17 00:57N 21°06' W 157°48'16 8.3 030 / 261014.1 25.8 27.1
2017-Nov-16 22:58N 20°54' W 158°00'6 5.6 050 / 201015.1 26.0 27.2
2017-Nov-16 21:58N 20°54' W 157°54'1111.2 050 / 201016.1 25.8 27.2
2017-Nov-16 20:58N 20°54' W 157°42'8 8.2 030 / 291015.9 25.5 27.2
2017-Nov-16 19:58N 20°48' W 157°48'6 5.6 030 / 251016.6 25.9 27.3
2017-Nov-16 18:58N 20°48' W 157°54'6 5.6 040 / 261016.5 26.2 27.4
2017-Nov-16 17:58N 20°48' W 157°48'1111.2 060 / 241016.6 26.2 27.4
2017-Nov-16 16:58N 20°48' W 157°36'0 0.0 050 / 211016.0 25.6 27.3
2017-Nov-16 15:58N 20°48' W 157°36'6 5.6 040 / 261014.9 25.4 27.4
2017-Nov-16 14:58N 20°48' W 157°42'8 8.2 030 / 221014.5 25.3 27.4
2017-Nov-16 13:58N 20°42' W 157°48'8 8.2 040 / 231014.5 25.4 27.4
2017-Nov-16 12:58N 20°48' W 157°42'0 0.0 050 / 281015.3 25.5 27.4
2017-Nov-16 11:58N 20°48' W 157°42'6 5.6 040 / 261015.3 25.4 27.4
2017-Nov-16 10:58N 20°48' W 157°48'6 5.7 030 / 241015.9 25.4 27.4
2017-Nov-16 09:59N 20°48' W 157°54'8 8.2 030 / 241015.9 25.5 27.5
2017-Nov-16 08:59N 20°54' W 157°48'0 0.0 050 / 301017.2 25.8 27.4
2017-Nov-16 07:59N 20°54' W 157°48'6 5.6 040 / 281016.6 25.9 27.3
2017-Nov-16 06:59N 20°54' W 157°54'6 5.6 030 / 301016.4 25.6 27.2
2017-Nov-16 05:59N 20°54' W 158°00'8 8.2 040 / 291016.1 26.2 27.4
2017-Nov-16 04:59N 21°00' W 157°54'6 5.6 050 / 301016.1 26.0 27.2
2017-Nov-16 03:59N 21°00' W 157°48'1313.2 360 / 111015.5 26.2 27.2
2017-Nov-16 02:59N 21°12' W 157°54'0 0.0 040 / 221014.9 26.3 27.1
2017-Nov-16 01:59N 21°12' W 157°54'6 6.0 340 / 101014.6 26.7 27.2
2017-Nov-16 00:59N 21°18' W 157°54'0 0.0 050 / 201014.6 27.2
2017-Nov-15 22:59N 21°18' W 157°54'0 0.0 040 / 151015.6 26.6 27.2
2017-Nov-15 21:59N 21°18' W 157°54'0 0.0 060 / 201016.2 26.5 27.1
2017-Nov-15 20:59N 21°18' W 157°54'0 0.0 050 / 191016.7 25.5 27.0
2017-Nov-15 20:00N 21°18' W 157°54'0 0.0 050 / 191017.2 26.3 27.0
2017-Nov-15 19:00N 21°18' W 157°54'   050 / 181017.1 26.0 27.0
Track history (hours):
 
Tides and Currents Weather Stations Pressure Air Temp Water Temp Dewpoint Dewpoint Depression Visibility Wind Speed Wind Dir Waves Ship Positions

Oceanographic research ship Reuben Lasker (United States)

Last reported at 2017-Nov-22 05:48 UTC. Time now 2017-Nov-22 07:24 UTC.
Position N 22°06' W 157°06'.

Length 64 m; draft 6.1 m.

Type: Other ship. MMSI: 369970573.

Wind from 360 at 8 knots

Barometer 1015.4 mb
Air temperature 21.4 ° C
Water temperature 25.9 ° C

Date/timePositionNaut miles runAvg speedWind from/ knotsBaromVisibWave heightAir tempDewpointWater temp
2017-Nov-22 05:48N 22°06' W 157°06'6 6.0 360 / 81015.4 21.4 25.9
2017-Nov-22 04:48N 22°00' W 157°06'6 6.0 050 / 61014.5 22.1 26.0
2017-Nov-22 03:48N 22°06' W 157°06'8 8.2 030 / 121013.6 23.5 26.0
2017-Nov-22 02:48N 22°00' W 157°12'8 8.2 040 / 101013.3 23.7 25.9
2017-Nov-22 01:48N 22°06' W 157°18'1312.6 040 / 101013.1 23.4 26.0
2017-Nov-22 00:48N 22°12' W 157°30'11 5.6 350 / 111013.2 23.4 26.0
2017-Nov-21 22:48N 22°12' W 157°42'1312.6 340 / 101014.3 22.3 26.0
2017-Nov-21 21:48N 22°18' W 157°54'1111.1 320 / 131015.0 22.2 26.2
2017-Nov-21 20:48N 22°18' W 158°06'1312.6 020 / 101015.3 24.2 26.1
2017-Nov-21 19:48N 22°24' W 158°18'6 5.5 050 / 111015.6 23.6 26.0
2017-Nov-21 18:48N 22°24' W 158°24'1111.1 350 / 81015.6 23.4 25.9
2017-Nov-21 17:48N 22°24' W 158°36'1312.6 310 / 91014.9 24.1 26.0
2017-Nov-21 16:48N 22°30' W 158°48'6 5.6 010 / 101014.3 23.9 25.8
2017-Nov-21 15:49N 22°30' W 158°42'6 5.5 020 / 121013.6 23.9 25.9
2017-Nov-21 14:49N 22°30' W 158°48'1616.3 330 / 121013.2 24.0 25.8
2017-Nov-21 13:49N 22°42' W 159°00'8 8.2 320 / 111013.4 23.5 25.8
2017-Nov-21 12:49N 22°48' W 159°06'1312.6 340 / 131013.7 23.8 25.8
2017-Nov-21 11:49N 22°54' W 159°18'8 8.2 340 / 131014.1 23.6 25.7
2017-Nov-21 10:49N 23°00' W 159°24'8 8.2 360 / 101014.8 23.8 25.8
2017-Nov-21 09:49N 23°06' W 159°30'1616.3 330 / 101015.3 23.6 25.8
2017-Nov-21 08:49N 23°18' W 159°42'8 8.1 340 / 121015.9 23.6 25.8
2017-Nov-21 07:49N 23°24' W 159°48'1312.5 350 / 91015.9 23.2 25.7
2017-Nov-21 06:49N 23°30' W 160°00'8 8.1 330 / 91015.7 23.8 25.9
2017-Nov-21 05:49N 23°36' W 160°06'0 0.0 020 / 141015.2 23.5 25.9
2017-Nov-21 04:49N 23°36' W 160°06'5 5.5 350 / 161014.3 23.2 25.9
2017-Nov-21 03:49N 23°36' W 160°12'5 5.5 010 / 171013.7 23.8 26.0
2017-Nov-21 02:49N 23°36' W 160°18'8 8.1 300 / 101013.3 23.5 25.9
2017-Nov-21 01:49N 23°42' W 160°24'1111.2 320 / 91012.9 23.7 26.0
2017-Nov-21 00:50N 23°42' W 160°36'18 8.8 350 / 121012.7 23.1 25.8
2017-Nov-20 22:51N 23°48' W 160°54'1111.0 010 / 161013.7 22.5 25.6
2017-Nov-20 21:51N 23°48' W 161°06'1312.5 010 / 151014.2 23.2 25.5
2017-Nov-20 20:51N 23°54' W 161°18'1111.0 310 / 101014.9 23.5 25.5
2017-Nov-20 19:51N 23°54' W 161°30'8 8.1 320 / 91015.2 23.2 25.6
2017-Nov-20 18:51N 24°00' W 161°36'1212.5 340 / 141014.9 22.8 25.8
2017-Nov-20 17:51N 24°06' W 161°48'5 5.5 330 / 121014.5 22.8 25.6
2017-Nov-20 16:51N 24°06' W 161°54'0 0.0 010 / 171013.8 22.5 25.7
2017-Nov-20 15:52N 24°06' W 161°54'5 5.5 020 / 181013.4 22.6 25.8
2017-Nov-20 14:52N 24°06' W 161°48'6 6.0 030 / 221013.4 29.9 25.6
2017-Nov-20 13:52N 24°12' W 161°48'1212.0 010 / 231013.9 22.3 25.7
2017-Nov-20 12:52N 24°24' W 161°48'6 6.0 020 / 181014.6 23.7 25.4
2017-Nov-20 11:52N 24°30' W 161°48'1313.2 030 / 191014.8 25.4 25.4
2017-Nov-20 10:52N 24°42' W 161°42'6 6.0 020 / 181015.1 23.7 25.4
2017-Nov-20 09:52N 24°48' W 161°42'6 6.0 030 / 191015.3 25.8 25.3
2017-Nov-20 08:52N 24°54' W 161°42'6 6.0 030 / 251015.7 26.9 25.4
2017-Nov-20 07:52N 25°00' W 161°42'0 0.0 010 / 111015.2 22.1 25.4
2017-Nov-20 06:52N 25°00' W 161°42'6 6.0 010 / 241014.8 22.5 25.4
2017-Nov-20 05:52N 24°54' W 161°42'0 0.0 010 / 231014.6 23.3 25.4
2017-Nov-20 04:52N 24°54' W 161°42'6 6.0 010 / 211014.2 23.1 25.4
2017-Nov-20 03:52N 24°48' W 161°42'8 8.1 010 / 181013.5 23.3 25.3
2017-Nov-20 02:52N 24°42' W 161°36'8 8.1 360 / 161013.2 22.7 25.3
2017-Nov-20 01:52N 24°36' W 161°30'1212.2 010 / 201013.2 22.9 25.4
2017-Nov-20 00:53N 24°24' W 161°30'16 8.1 360 / 201013.3 22.9 25.4
2017-Nov-19 22:53N 24°12' W 161°18'6 6.0 360 / 141014.5 23.1 25.6
2017-Nov-19 21:53N 24°06' W 161°18'1616.3 010 / 151015.2 23.5 25.6
2017-Nov-19 20:53N 23°54' W 161°06'8 8.1 360 / 171015.7 23.2 25.6
2017-Nov-19 19:53N 23°48' W 161°00'8 8.1 350 / 181015.8 23.1 25.6
2017-Nov-19 18:53N 23°42' W 160°54'5 5.5 360 / 161015.1 22.9 25.6
2017-Nov-19 17:53N 23°42' W 160°48'8 8.1 360 / 171015.2 24.9 25.8
2017-Nov-19 16:53N 23°48' W 160°54'6 6.0 360 / 161014.5 23.9 25.6
2017-Nov-19 15:53N 23°54' W 160°54'6 6.0 340 / 161013.8 22.7 25.6
2017-Nov-19 14:53N 23°48' W 160°54'5 5.5 010 / 181013.4 23.2 25.6
2017-Nov-19 13:53N 23°48' W 160°48'1312.5 350 / 201012.9 23.2 26.1
2017-Nov-19 12:53N 23°42' W 160°36'1111.0 350 / 211012.7 23.3 26.2
2017-Nov-19 11:53N 23°42' W 160°24'1312.5 340 / 161013.0 23.3 26.0
2017-Nov-19 10:53N 23°36' W 160°12'5 5.5 350 / 161013.3 23.2 26.0
2017-Nov-19 09:53N 23°36' W 160°06'1312.7 350 / 161013.2 23.4 26.2
2017-Nov-19 08:54N 23°30' W 159°54'1111.0 340 / 181013.2 23.5 26.1
2017-Nov-19 07:54N 23°30' W 159°42'1312.5 350 / 181013.0 23.5 26.0
2017-Nov-19 06:54N 23°24' W 159°30'6 5.5 350 / 171013.1 22.6 25.9
2017-Nov-19 05:54N 23°24' W 159°24'0 0.0 340 / 161012.7 23.2 26.0
2017-Nov-19 04:54N 23°24' W 159°24'0 0.0 340 / 181012.1 23.4 26.0
2017-Nov-19 03:54N 23°24' W 159°24'1111.0 310 / 171011.7 23.6 26.0
2017-Nov-19 02:54N 23°24' W 159°12'1312.5 340 / 151011.0 23.8 26.0
2017-Nov-19 01:54N 23°18' W 159°00'6 5.5 340 / 141010.6 23.9 26.0
2017-Nov-19 00:54N 23°18' W 158°54'2311.4 330 / 121010.5 24.2 25.8
2017-Nov-18 22:54N 23°12' W 158°30'1111.0 340 / 141011.6 24.2 26.2
2017-Nov-18 21:54N 23°12' W 158°18'6 6.0 010 / 121012.5 22.4 26.2
2017-Nov-18 20:54N 23°06' W 158°18'1111.0 350 / 151012.9 23.2 26.2
2017-Nov-18 19:54N 23°06' W 158°06'1111.0 010 / 71013.0 23.9 26.3
2017-Nov-18 18:54N 23°06' W 157°54'8 8.3 340 / 101012.5 23.4 26.3
2017-Nov-18 17:55N 23°00' W 157°48'1111.0 330 / 121011.7 24.0 26.2
2017-Nov-18 16:55N 23°00' W 157°36'0 0.0 310 / 61011.4 24.3 26.2
2017-Nov-18 15:55N 23°00' W 157°36'0 0.0 330 / 91011.4 24.2 26.2
2017-Nov-18 14:55N 23°00' W 157°36'6 6.0 290 / 61011.1 24.0 26.2
2017-Nov-18 13:55N 22°54' W 157°36'1313.2 320 / 101011.2 24.2 26.1
2017-Nov-18 12:55N 22°42' W 157°42'8 8.2 320 / 111011.4 24.0 26.2
2017-Nov-18 11:55N 22°36' W 157°48'8 8.2 290 / 81012.1 24.1 26.2
2017-Nov-18 10:55N 22°30' W 157°54'8 8.2 340 / 121012.4 23.6 26.2
2017-Nov-18 09:55N 22°24' W 158°00'8 8.2 350 / 61012.9 24.6 26.2
2017-Nov-18 08:55N 22°18' W 158°06'1313.2 360 / 61013.4 24.9 26.2
2017-Nov-18 07:55N 22°06' W 158°12'8 8.2 360 / 81013.4 25.0 26.2
2017-Nov-18 06:55N 22°00' W 158°18'8 8.2 010 / 91013.4 25.1 26.2
2017-Nov-18 05:55N 21°54' W 158°24'6 6.0 030 / 101013.1 25.1 26.3
2017-Nov-18 04:55N 21°48' W 158°24'6 6.0 030 / 121012.7 25.0 26.3
2017-Nov-18 03:55N 21°42' W 158°24'8 8.3 010 / 111012.1 25.3 26.5
2017-Nov-18 02:56N 21°36' W 158°30'8 8.2 020 / 121011.8 25.9 27.0
2017-Nov-18 01:56N 21°30' W 158°24'8 8.2 020 / 131011.4 25.5 27.1
2017-Nov-18 00:56N 21°24' W 158°18'19 9.4 010 / 141011.2 25.9 27.2
2017-Nov-17 22:56N 21°06' W 158°12'8 8.2 100 / 11012.7 25.8 27.4
2017-Nov-17 21:56N 21°00' W 158°06'6 5.7 080 / 61013.5 25.9 27.3
2017-Nov-17 20:57N 21°00' W 158°00'8 8.2 020 / 61014.0 25.8 27.2
2017-Nov-17 19:57N 21°06' W 158°06'8 8.2 050 / 71014.8 25.9 27.1
2017-Nov-17 18:57N 21°00' W 158°00'6 5.6 020 / 71014.6 24.9 27.1
2017-Nov-17 17:57N 21°00' W 157°54'1111.2 050 / 141014.6 25.5 27.1
2017-Nov-17 16:57N 21°00' W 157°42'0 0.0 040 / 161013.9 25.0 27.1
2017-Nov-17 15:57N 21°00' W 157°42'0 0.0 050 / 171013.4 24.9 27.2
2017-Nov-17 14:58N 21°00' W 157°42'8 8.1 060 / 131013.5 25.0 27.1
2017-Nov-17 13:57N 20°54' W 157°36'6 5.6 050 / 141013.6 24.8 27.2
2017-Nov-17 12:57N 20°54' W 157°30'6 5.6 050 / 141013.9 25.1 27.1
2017-Nov-17 11:57N 20°54' W 157°24'6 5.6 020 / 161014.1 24.8 27.1
2017-Nov-17 10:57N 20°54' W 157°30'8 8.2 030 / 181014.5 25.2 27.3
2017-Nov-17 09:57N 20°48' W 157°36'6 5.6 030 / 201015.2 25.2 27.3
2017-Nov-17 08:57N 20°48' W 157°42'6 5.6 040 / 221015.7 25.6 27.3
2017-Nov-17 07:57N 20°48' W 157°48'6 5.6 030 / 211015.8 26.0 27.3
2017-Nov-17 06:57N 20°48' W 157°54'6 5.6 020 / 181015.7 25.8 27.3
2017-Nov-17 05:57N 20°48' W 158°00'6 5.6 030 / 241015.5 25.9 27.4
2017-Nov-17 04:57N 20°48' W 157°54'0 0.0 030 / 241014.9 25.9 27.4
2017-Nov-17 03:57N 20°48' W 157°54'8 8.2 050 / 231015.2 27.1 27.3
2017-Nov-17 02:57N 20°54' W 157°48'1313.2 050 / 261014.7 26.2 27.2
2017-Nov-17 01:57N 21°06' W 157°42'6 5.6 020 / 251014.1 26.0 27.1
2017-Nov-17 00:57N 21°06' W 157°48'16 8.3 030 / 261014.1 25.8 27.1
2017-Nov-16 22:58N 20°54' W 158°00'6 5.6 050 / 201015.1 26.0 27.2
2017-Nov-16 21:58N 20°54' W 157°54'1111.2 050 / 201016.1 25.8 27.2
2017-Nov-16 20:58N 20°54' W 157°42'8 8.2 030 / 291015.9 25.5 27.2
2017-Nov-16 19:58N 20°48' W 157°48'6 5.6 030 / 251016.6 25.9 27.3
2017-Nov-16 18:58N 20°48' W 157°54'6 5.6 040 / 261016.5 26.2 27.4
2017-Nov-16 17:58N 20°48' W 157°48'1111.2 060 / 241016.6 26.2 27.4
2017-Nov-16 16:58N 20°48' W 157°36'0 0.0 050 / 211016.0 25.6 27.3
2017-Nov-16 15:58N 20°48' W 157°36'6 5.6 040 / 261014.9 25.4 27.4
2017-Nov-16 14:58N 20°48' W 157°42'8 8.2 030 / 221014.5 25.3 27.4
2017-Nov-16 13:58N 20°42' W 157°48'8 8.2 040 / 231014.5 25.4 27.4
2017-Nov-16 12:58N 20°48' W 157°42'0 0.0 050 / 281015.3 25.5 27.4
2017-Nov-16 11:58N 20°48' W 157°42'6 5.6 040 / 261015.3 25.4 27.4
2017-Nov-16 10:58N 20°48' W 157°48'6 5.7 030 / 241015.9 25.4 27.4
2017-Nov-16 09:59N 20°48' W 157°54'8 8.2 030 / 241015.9 25.5 27.5
2017-Nov-16 08:59N 20°54' W 157°48'0 0.0 050 / 301017.2 25.8 27.4
2017-Nov-16 07:59N 20°54' W 157°48'6 5.6 040 / 281016.6 25.9 27.3
2017-Nov-16 06:59N 20°54' W 157°54'6 5.6 030 / 301016.4 25.6 27.2
2017-Nov-16 05:59N 20°54' W 158°00'8 8.2 040 / 291016.1 26.2 27.4
2017-Nov-16 04:59N 21°00' W 157°54'6 5.6 050 / 301016.1 26.0 27.2
2017-Nov-16 03:59N 21°00' W 157°48'1313.2 360 / 111015.5 26.2 27.2
2017-Nov-16 02:59N 21°12' W 157°54'0 0.0 040 / 221014.9 26.3 27.1
2017-Nov-16 01:59N 21°12' W 157°54'6 6.0 340 / 101014.6 26.7 27.2
2017-Nov-16 00:59N 21°18' W 157°54'0 0.0 050 / 201014.6 27.2
2017-Nov-15 22:59N 21°18' W 157°54'0 0.0 040 / 151015.6 26.6 27.2
2017-Nov-15 21:59N 21°18' W 157°54'0 0.0 060 / 201016.2 26.5 27.1
2017-Nov-15 20:59N 21°18' W 157°54'0 0.0 050 / 191016.7 25.5 27.0
2017-Nov-15 20:00N 21°18' W 157°54'0 0.0 050 / 191017.2 26.3 27.0
2017-Nov-15 19:00N 21°18' W 157°54'   050 / 181017.1 26.0 27.0

Dump ship's entire track history